createdAt,value
2022-10-28T00:00:30.324Z,98.47
2022-10-28T00:03:00.657Z,98.58
2022-10-28T00:05:27.622Z,98.57
2022-10-28T00:07:54.385Z,98.52
2022-10-28T00:10:21.549Z,98.47
2022-10-28T00:12:48.128Z,98.17
2022-10-28T00:15:15.270Z,98.18
2022-10-28T00:17:41.886Z,97.61
2022-10-28T00:20:11.400Z,97.83
2022-10-28T00:22:38.070Z,97.58
2022-10-28T00:25:05.336Z,97.70
2022-10-28T00:27:32.430Z,98.00
2022-10-28T00:29:59.063Z,98.01
2022-10-28T00:32:25.791Z,97.81
2022-10-28T00:34:52.833Z,98.05
2022-10-28T00:37:20.924Z,97.81
2022-10-28T00:39:48.058Z,98.06
2022-10-28T00:42:18.151Z,97.83
2022-10-28T00:44:57.524Z,98.05
2022-10-28T00:47:33.439Z,97.86
2022-10-28T00:50:07.861Z,97.76
2022-10-28T00:52:36.044Z,97.79
2022-10-28T00:55:03.804Z,97.63
2022-10-28T00:57:34.504Z,97.57
2022-10-28T01:00:02.719Z,97.71
2022-10-28T01:02:29.834Z,97.58
2022-10-28T01:04:56.535Z,97.82
2022-10-28T01:07:23.354Z,97.22
2022-10-28T01:09:51.724Z,97.51
2022-10-28T01:12:32.910Z,97.56
2022-10-28T01:15:08.065Z,97.44
2022-10-28T01:17:47.307Z,97.37
2022-10-28T01:21:01.584Z,97.53
2022-10-28T01:23:35.446Z,97.56
2022-10-28T01:26:31.923Z,97.35
2022-10-28T01:29:33.986Z,97.22
2022-10-28T01:32:08.412Z,97.32
2022-10-28T01:34:49.093Z,97.18
2022-10-28T01:37:24.471Z,97.01
2022-10-28T01:39:55.365Z,97.41
2022-10-28T01:42:28.650Z,97.17
2022-10-28T01:45:05.530Z,97.27
2022-10-28T01:47:39.265Z,97.63
2022-10-28T01:50:08.921Z,97.71
2022-10-28T01:52:40.530Z,97.98
2022-10-28T01:55:14.326Z,98.22
2022-10-28T01:57:43.510Z,98.31
2022-10-28T02:00:11.357Z,98.41
2022-10-28T02:02:41.143Z,98.15
2022-10-28T02:05:39.427Z,98.14
2022-10-28T02:08:33.908Z,97.80
2022-10-28T02:11:13.537Z,97.77
2022-10-28T02:13:51.819Z,97.94
2022-10-28T02:16:29.008Z,97.79
2022-10-28T02:19:03.530Z,97.93
2022-10-28T02:21:39.430Z,97.50
2022-10-28T02:24:13.648Z,97.37
2022-10-28T02:26:47.193Z,97.57
2022-10-28T02:29:19.279Z,97.71
2022-10-28T02:31:51.491Z,97.82
2022-10-28T02:34:25.913Z,98.14
2022-10-28T02:36:56.189Z,98.19
2022-10-28T02:39:26.861Z,98.30
2022-10-28T02:41:57.558Z,98.79
2022-10-28T02:44:29.325Z,98.64
2022-10-28T02:47:00.457Z,98.50
2022-10-28T02:49:32.539Z,98.42
2022-10-28T02:52:02.764Z,98.68
2022-10-28T02:54:35.505Z,98.90
2022-10-28T02:57:07.940Z,98.85
2022-10-28T02:59:34.586Z,99.18
2022-10-28T03:02:01.426Z,99.46
2022-10-28T03:04:30.270Z,99.47
2022-10-28T03:06:56.864Z,99.47
2022-10-28T03:09:23.490Z,99.08
2022-10-28T03:11:50.115Z,99.25
2022-10-28T03:14:16.822Z,99.19
2022-10-28T03:16:43.813Z,99.33
2022-10-28T03:19:10.523Z,99.30
2022-10-28T03:21:38.495Z,99.39
2022-10-28T03:24:06.062Z,99.64
2022-10-28T03:26:32.619Z,99.84
2022-10-28T03:28:59.200Z,100.00
2022-10-28T03:31:26.183Z,100.00
2022-10-28T03:33:52.756Z,100.00
2022-10-28T03:36:19.376Z,100.00
2022-10-28T03:38:47.866Z,100.00
2022-10-28T03:41:14.450Z,100.00
2022-10-28T03:43:41.171Z,100.00
2022-10-28T03:46:08.710Z,100.00
2022-10-28T03:48:35.467Z,100.00
2022-10-28T03:51:02.031Z,100.00
2022-10-28T03:53:31.142Z,99.86
2022-10-28T03:56:01.048Z,100.00
2022-10-28T03:58:28.348Z,100.00
2022-10-28T04:00:55.819Z,100.00
2022-10-28T04:03:25.075Z,100.00
2022-10-28T04:05:52.578Z,99.85
2022-10-28T04:08:20.329Z,99.89
2022-10-28T04:10:47.851Z,99.68
2022-10-28T04:13:17.381Z,99.51
2022-10-28T04:15:44.453Z,99.40
2022-10-28T04:18:11.538Z,99.53
2022-10-28T04:20:38.762Z,99.46
2022-10-28T04:23:05.571Z,99.33
2022-10-28T04:25:32.182Z,99.13
2022-10-28T04:27:58.916Z,99.21
2022-10-28T04:30:26.872Z,99.55
2022-10-28T04:32:53.922Z,99.81
2022-10-28T04:35:20.492Z,100.00
2022-10-28T04:37:47.136Z,100.00
2022-10-28T04:40:13.985Z,100.00
2022-10-28T04:42:40.811Z,100.00
2022-10-28T04:45:08.943Z,100.00
2022-10-28T04:47:36.888Z,100.00
2022-10-28T04:50:04.528Z,100.00
2022-10-28T04:52:31.373Z,100.00
2022-10-28T04:54:58.364Z,100.00
2022-10-28T04:57:25.398Z,100.00
2022-10-28T04:59:51.955Z,100.00
2022-10-28T05:02:19.016Z,100.00
2022-10-28T05:04:47.124Z,100.00
2022-10-28T05:07:13.745Z,100.00
2022-10-28T05:09:40.363Z,100.00
2022-10-28T05:12:07.367Z,100.00
2022-10-28T05:14:33.985Z,100.00
2022-10-28T05:17:00.921Z,100.00
2022-10-28T05:19:27.559Z,100.00
2022-10-28T05:21:55.803Z,100.00
2022-10-28T05:24:22.441Z,100.00
2022-10-28T05:26:49.320Z,100.00
2022-10-28T05:29:15.938Z,100.00
2022-10-28T05:31:42.829Z,100.00
2022-10-28T05:34:09.450Z,100.00
2022-10-28T05:36:36.205Z,100.00
2022-10-28T05:39:04.838Z,100.00
2022-10-28T05:41:34.051Z,100.00
2022-10-28T05:44:03.465Z,100.00
2022-10-28T05:46:30.037Z,100.00
2022-10-28T05:48:57.258Z,100.00
2022-10-28T05:51:24.483Z,100.00
2022-10-28T05:53:51.350Z,100.00
2022-10-28T05:56:19.363Z,100.00
2022-10-28T05:58:46.006Z,100.00
2022-10-28T06:01:12.669Z,99.85
2022-10-28T06:03:39.692Z,99.58
2022-10-28T06:06:07.055Z,99.84
2022-10-28T06:08:33.646Z,100.00
2022-10-28T06:10:59.051Z,99.91
2022-10-28T06:13:27.434Z,99.46
2022-10-28T06:15:55.725Z,99.67
2022-10-28T06:18:23.095Z,99.51
2022-10-28T06:20:51.113Z,99.57
2022-10-28T06:23:17.947Z,99.70
2022-10-28T06:25:44.589Z,99.75
2022-10-28T06:28:11.268Z,99.72
2022-10-28T06:30:39.376Z,99.86
2022-10-28T06:33:06.093Z,99.81
2022-10-28T06:35:33.224Z,99.89
2022-10-28T06:38:00.135Z,100.00
2022-10-28T06:40:26.724Z,100.00
2022-10-28T06:42:57.654Z,100.00
2022-10-28T06:45:25.089Z,100.00
2022-10-28T06:47:57.189Z,100.00
2022-10-28T06:50:24.050Z,100.00
2022-10-28T06:52:51.050Z,99.86
2022-10-28T06:55:18.136Z,100.00
2022-10-28T06:57:44.765Z,100.00
2022-10-28T07:00:12.589Z,100.00
2022-10-28T07:02:42.815Z,100.00
2022-10-28T07:05:13.129Z,100.00
2022-10-28T07:07:39.697Z,100.00
2022-10-28T07:10:06.947Z,100.00
2022-10-28T07:12:33.590Z,100.00
2022-10-28T07:15:00.176Z,100.00
2022-10-28T07:17:27.341Z,100.00
2022-10-28T07:19:53.901Z,100.00
2022-10-28T07:22:25.485Z,100.00
2022-10-28T07:24:52.352Z,100.00
2022-10-28T07:27:18.901Z,100.00
2022-10-28T07:29:45.661Z,100.00
2022-10-28T07:32:12.324Z,100.00
2022-10-28T07:34:39.149Z,100.00
2022-10-28T07:37:05.705Z,100.00
2022-10-28T07:39:33.832Z,100.00
2022-10-28T07:42:00.459Z,100.00
2022-10-28T07:44:27.191Z,100.00
2022-10-28T07:46:57.180Z,100.00
2022-10-28T07:49:25.296Z,100.00
2022-10-28T07:51:51.915Z,100.00
2022-10-28T07:54:18.490Z,100.00
2022-10-28T07:56:47.266Z,100.00
2022-10-28T07:59:13.900Z,100.00
2022-10-28T08:01:40.709Z,100.00
2022-10-28T08:04:07.480Z,100.00
2022-10-28T08:06:35.065Z,100.00
2022-10-28T08:09:02.183Z,100.00
2022-10-28T08:11:28.859Z,100.00
2022-10-28T08:13:57.082Z,100.00
2022-10-28T08:16:24.082Z,100.00
2022-10-28T08:18:51.120Z,100.00
2022-10-28T08:21:17.727Z,100.00
2022-10-28T08:23:44.678Z,100.00
2022-10-28T08:26:11.282Z,99.98
2022-10-28T08:28:38.072Z,100.00
2022-10-28T08:31:09.183Z,100.00
2022-10-28T08:33:37.165Z,100.00
2022-10-28T08:36:04.733Z,100.00
2022-10-28T08:38:31.336Z,100.00
2022-10-28T08:41:07.290Z,100.00
2022-10-28T08:43:57.151Z,100.00
2022-10-28T08:46:40.183Z,99.97
2022-10-28T08:49:12.645Z,98.27
2022-10-28T08:51:45.748Z,97.92
2022-10-28T08:54:18.445Z,96.68
2022-10-28T08:56:47.565Z,95.94
2022-10-28T08:59:19.788Z,95.02
2022-10-28T09:01:51.416Z,95.24
2022-10-28T09:04:28.034Z,95.62
2022-10-28T09:06:55.992Z,94.48
2022-10-28T09:09:23.284Z,94.54
2022-10-28T09:12:02.299Z,94.96
2022-10-28T09:14:44.169Z,95.10
2022-10-28T09:17:17.673Z,95.68
2022-10-28T09:19:48.350Z,93.98
2022-10-28T09:22:24.210Z,93.59
2022-10-28T09:24:54.276Z,93.76
2022-10-28T09:27:51.804Z,92.13
2022-10-28T09:30:28.750Z,90.90
2022-10-28T09:33:08.471Z,90.55
2022-10-28T09:35:40.699Z,90.71
2022-10-28T09:38:14.761Z,89.33
2022-10-28T09:40:46.148Z,87.23
2022-10-28T09:43:21.966Z,88.91
2022-10-28T09:45:51.725Z,88.92
2022-10-28T09:48:24.383Z,88.68
2022-10-28T09:50:54.422Z,87.20
2022-10-28T09:53:41.540Z,86.79
2022-10-28T09:58:44.979Z,83.86
2022-10-28T10:01:11.816Z,82.66
2022-10-28T10:03:40.367Z,82.31
2022-10-28T10:06:12.162Z,80.83
2022-10-28T10:08:41.342Z,82.85
2022-10-28T10:11:15.031Z,81.54
2022-10-28T10:13:43.742Z,81.61
2022-10-28T10:16:18.769Z,79.64
2022-10-28T10:18:53.133Z,81.51
2022-10-28T10:21:40.967Z,79.33
2022-10-28T10:24:29.038Z,78.31
2022-10-28T10:26:58.163Z,78.06
2022-10-28T10:29:24.861Z,77.76
2022-10-28T10:32:07.190Z,78.30
2022-10-28T10:34:35.553Z,77.24
2022-10-28T10:39:36.788Z,77.09
2022-10-28T10:42:15.413Z,76.49
2022-10-28T10:44:43.375Z,77.39
2022-10-28T10:47:28.149Z,77.90
2022-10-28T10:50:18.900Z,76.65
2022-10-28T10:52:49.330Z,76.15
2022-10-28T10:55:22.944Z,76.37
2022-10-28T10:57:49.877Z,76.21
2022-10-28T11:00:19.385Z,76.22
2022-10-28T11:02:50.031Z,75.10
2022-10-28T11:05:27.003Z,74.67
2022-10-28T11:07:58.177Z,74.57
2022-10-28T11:10:27.089Z,72.21
2022-10-28T11:12:55.800Z,70.94
2022-10-28T11:15:25.760Z,71.81
2022-10-28T11:18:01.288Z,71.03
2022-10-28T11:20:43.320Z,69.71
2022-10-28T11:23:25.866Z,70.53
2022-10-28T11:25:55.079Z,70.03
2022-10-28T11:28:33.925Z,69.33
2022-10-28T11:31:14.168Z,68.30
2022-10-28T11:33:49.774Z,70.41
2022-10-28T11:36:28.479Z,68.31
2022-10-28T11:39:07.496Z,69.07
2022-10-28T11:41:47.460Z,71.46
2022-10-28T11:44:30.807Z,71.90
2022-10-28T11:47:08.213Z,71.13
2022-10-28T11:49:59.011Z,69.92
2022-10-28T11:52:45.261Z,69.66
2022-10-28T11:55:21.743Z,70.93
2022-10-28T11:58:00.070Z,70.95
2022-10-28T12:00:49.153Z,70.68
2022-10-28T12:03:43.717Z,70.64
2022-10-28T12:06:18.640Z,70.24
2022-10-28T12:09:02.823Z,70.13
2022-10-28T12:11:45.758Z,69.50
2022-10-28T12:14:20.249Z,68.11
2022-10-28T12:16:52.976Z,69.17
2022-10-28T12:19:22.849Z,68.31
2022-10-28T12:21:59.851Z,70.94
2022-10-28T12:24:30.895Z,70.71
2022-10-28T12:27:02.431Z,71.03
2022-10-28T12:29:33.826Z,71.80
2022-10-28T12:32:04.987Z,68.39
2022-10-28T12:37:12.532Z,66.95
2022-10-28T12:39:46.039Z,68.57
2022-10-28T12:42:18.376Z,68.46
2022-10-28T12:44:47.742Z,66.35
2022-10-28T12:47:25.319Z,66.68
2022-10-28T12:50:02.933Z,66.23
2022-10-28T12:52:40.171Z,67.22
2022-10-28T12:55:18.972Z,66.22
2022-10-28T12:57:49.635Z,64.08
2022-10-28T13:00:21.820Z,65.31
2022-10-28T13:02:54.401Z,66.26
2022-10-28T13:05:25.475Z,66.23
2022-10-28T13:08:10.354Z,64.64
2022-10-28T13:10:46.122Z,65.25
2022-10-28T13:13:28.773Z,66.92
2022-10-28T13:16:17.382Z,66.11
2022-10-28T13:19:31.770Z,66.45
2022-10-28T13:25:00.874Z,66.83
2022-10-28T13:27:29.408Z,67.47
2022-10-28T13:29:59.795Z,66.15
2022-10-28T13:32:35.825Z,67.84
2022-10-28T13:35:13.403Z,66.67
2022-10-28T13:37:41.451Z,65.84
2022-10-28T13:40:21.482Z,64.84
2022-10-28T13:42:49.855Z,67.59
2022-10-28T13:45:44.981Z,67.26
2022-10-28T13:48:32.209Z,67.94
2022-10-28T13:51:44.867Z,67.86
2022-10-28T13:54:25.611Z,67.78
2022-10-28T13:56:52.852Z,67.49
2022-10-28T13:59:28.603Z,69.25
2022-10-28T14:02:07.970Z,71.58
2022-10-28T14:04:55.053Z,73.37
2022-10-28T14:07:23.994Z,73.31
2022-10-28T14:09:53.982Z,74.17
2022-10-28T14:12:27.599Z,75.02
2022-10-28T14:15:03.128Z,74.72
2022-10-28T14:17:36.257Z,74.62
2022-10-28T14:20:05.945Z,73.96
2022-10-28T14:22:35.481Z,74.89
2022-10-28T14:25:03.519Z,74.49
2022-10-28T14:27:43.720Z,75.96
2022-10-28T14:30:22.831Z,75.00
2022-10-28T14:33:11.126Z,72.71
2022-10-28T14:35:40.494Z,73.28
2022-10-28T14:38:45.165Z,70.64
2022-10-28T14:41:36.630Z,71.50
2022-10-28T14:44:20.790Z,73.32
2022-10-28T14:47:07.138Z,72.13
2022-10-28T14:49:36.534Z,72.90
2022-10-28T14:52:07.443Z,73.93
2022-10-28T14:54:38.224Z,74.65
2022-10-28T14:57:08.327Z,74.19
2022-10-28T14:59:38.315Z,74.12
2022-10-28T15:02:13.115Z,73.58
2022-10-28T15:04:42.057Z,74.31
2022-10-28T15:07:13.130Z,72.04
2022-10-28T15:09:41.105Z,72.41
2022-10-28T15:12:09.968Z,72.75
2022-10-28T15:14:39.067Z,74.04
2022-10-28T15:17:16.979Z,74.87
2022-10-28T15:19:44.603Z,75.84
2022-10-28T15:22:17.858Z,76.64
2022-10-28T15:24:54.076Z,77.81
2022-10-28T15:27:21.811Z,78.97
2022-10-28T15:29:49.588Z,79.76
2022-10-28T15:32:28.954Z,80.05
2022-10-28T15:34:56.330Z,80.65
2022-10-28T15:37:25.529Z,81.32
2022-10-28T15:40:12.125Z,82.29
2022-10-28T15:42:42.102Z,82.97
2022-10-28T15:45:18.301Z,83.11
2022-10-28T15:47:48.643Z,83.58
2022-10-28T15:50:27.883Z,83.76
2022-10-28T15:52:55.266Z,84.10
2022-10-28T15:55:41.386Z,84.46
2022-10-28T15:58:31.704Z,85.03
2022-10-28T16:00:58.893Z,84.41
2022-10-28T16:06:00.642Z,83.94
2022-10-28T16:08:29.736Z,83.95
2022-10-28T16:10:59.618Z,83.67
2022-10-28T16:13:29.918Z,83.57
2022-10-28T16:16:00.897Z,82.81
2022-10-28T16:18:31.313Z,83.57
2022-10-28T16:21:00.190Z,83.65
2022-10-28T16:23:36.602Z,84.28
2022-10-28T16:26:03.611Z,83.67
2022-10-28T16:28:32.180Z,83.96
2022-10-28T16:31:01.030Z,82.21
2022-10-28T16:33:32.403Z,82.01
2022-10-28T16:35:59.868Z,81.58
2022-10-28T16:38:26.980Z,81.18
2022-10-28T16:40:53.817Z,80.17
2022-10-28T16:43:22.688Z,80.72
2022-10-28T16:45:50.467Z,81.17
2022-10-28T16:48:18.944Z,80.79
2022-10-28T16:50:51.175Z,81.20
2022-10-28T16:53:18.389Z,81.69
2022-10-28T16:55:45.425Z,82.28
2022-10-28T16:58:12.575Z,82.26
2022-10-28T17:00:40.162Z,82.13
2022-10-28T17:03:07.908Z,82.64
2022-10-28T17:05:34.961Z,83.20
2022-10-28T17:08:05.864Z,84.12
2022-10-28T17:10:35.481Z,84.99
2022-10-28T17:13:02.073Z,85.64
2022-10-28T17:15:28.736Z,86.00
2022-10-28T17:17:55.754Z,86.07
2022-10-28T17:20:22.435Z,86.45
2022-10-28T17:22:49.243Z,86.77
2022-10-28T17:25:17.572Z,86.88
2022-10-28T17:27:44.113Z,87.46
2022-10-28T17:30:11.892Z,87.29
2022-10-28T17:32:38.729Z,89.20
2022-10-28T17:35:05.966Z,88.39
2022-10-28T17:37:33.349Z,89.31
2022-10-28T17:39:59.922Z,89.82
2022-10-28T17:42:28.757Z,90.25
2022-10-28T17:44:55.309Z,90.81
2022-10-28T17:47:22.170Z,90.47
2022-10-28T17:49:48.744Z,92.47
2022-10-28T17:52:15.692Z,91.57
2022-10-28T17:54:42.279Z,91.76
2022-10-28T17:57:08.887Z,91.40
2022-10-28T17:59:36.853Z,91.32
2022-10-28T18:02:03.886Z,90.86
2022-10-28T18:04:31.033Z,91.59
2022-10-28T18:06:58.057Z,91.09
2022-10-28T18:09:25.356Z,92.52
2022-10-28T18:11:51.966Z,92.92
2022-10-28T18:14:18.868Z,92.49
2022-10-28T18:16:46.955Z,91.99
2022-10-28T18:19:13.759Z,92.01
2022-10-28T18:21:40.437Z,91.35
2022-10-28T18:24:07.847Z,91.68
2022-10-28T18:26:36.260Z,91.57
2022-10-28T18:29:06.000Z,91.32
2022-10-28T18:31:33.563Z,91.62
2022-10-28T18:34:02.142Z,91.17
2022-10-28T18:36:30.772Z,91.24
2022-10-28T18:38:57.564Z,91.66
2022-10-28T18:41:25.810Z,90.89
2022-10-28T18:43:54.143Z,91.14
2022-10-28T18:46:21.384Z,91.29
2022-10-28T18:48:48.360Z,91.30
2022-10-28T18:51:17.039Z,91.34
2022-10-28T18:53:45.356Z,91.43
2022-10-28T18:56:15.558Z,91.59
2022-10-28T18:58:42.264Z,91.56
2022-10-28T19:01:10.678Z,91.29
2022-10-28T19:03:38.192Z,88.63
2022-10-28T19:06:06.740Z,84.44
2022-10-28T19:08:35.040Z,83.37
2022-10-28T19:11:02.743Z,83.13
2022-10-28T19:13:32.781Z,84.01
2022-10-28T19:15:59.387Z,84.75
2022-10-28T19:18:26.245Z,86.01
2022-10-28T19:20:52.835Z,84.97
2022-10-28T19:23:19.741Z,85.59
2022-10-28T19:25:55.760Z,86.41
2022-10-28T19:28:22.881Z,83.57
2022-10-28T19:30:49.917Z,84.44
2022-10-28T19:33:16.784Z,82.17
2022-10-28T19:35:43.352Z,80.83
2022-10-28T19:38:10.189Z,79.35
2022-10-28T19:40:37.007Z,79.76
2022-10-28T19:43:05.350Z,79.00
2022-10-28T19:45:32.175Z,78.68
2022-10-28T19:48:00.827Z,78.64
2022-10-28T19:50:27.596Z,77.49
2022-10-28T19:52:54.315Z,77.57
2022-10-28T19:55:21.253Z,78.62
2022-10-28T19:57:50.402Z,77.33
2022-10-28T20:00:21.287Z,77.87
2022-10-28T20:02:47.937Z,79.09
2022-10-28T20:05:14.702Z,79.00
2022-10-28T20:07:41.338Z,79.43
2022-10-28T20:10:08.880Z,79.85
2022-10-28T20:12:35.449Z,80.69
2022-10-28T20:15:02.371Z,80.85
2022-10-28T20:17:30.369Z,81.62
2022-10-28T20:19:57.281Z,82.54
2022-10-28T20:22:23.884Z,82.65
2022-10-28T20:24:50.782Z,83.44
2022-10-28T20:27:17.386Z,83.60
2022-10-28T20:29:44.293Z,84.05
2022-10-28T20:32:10.887Z,84.42
2022-10-28T20:34:39.113Z,84.62
2022-10-28T20:37:05.703Z,85.12
2022-10-28T20:39:32.561Z,84.67
2022-10-28T20:41:59.174Z,85.15
2022-10-28T20:44:26.091Z,85.79
2022-10-28T20:46:52.706Z,85.79
2022-10-28T20:49:19.644Z,86.32
2022-10-28T20:51:47.653Z,87.28
2022-10-28T20:54:14.372Z,87.98
2022-10-28T20:56:41.014Z,87.96
2022-10-28T20:59:08.094Z,87.36
2022-10-28T21:01:36.435Z,86.36
2022-10-28T21:04:04.935Z,86.20
2022-10-28T21:06:32.074Z,84.22
2022-10-28T21:09:00.062Z,84.05
2022-10-28T21:11:28.017Z,84.01
2022-10-28T21:13:56.764Z,85.01
2022-10-28T21:16:24.421Z,85.22
2022-10-28T21:18:51.811Z,85.79
2022-10-28T21:21:19.429Z,86.11
2022-10-28T21:23:46.425Z,85.41
2022-10-28T21:26:14.580Z,85.42
2022-10-28T21:28:41.634Z,85.63
2022-10-28T21:31:10.074Z,85.82
2022-10-28T21:33:38.107Z,86.40
2022-10-28T21:36:06.751Z,87.00
2022-10-28T21:38:33.892Z,87.78
2022-10-28T21:41:02.149Z,88.37
2022-10-28T21:43:32.895Z,89.19
2022-10-28T21:45:59.779Z,89.13
2022-10-28T21:48:27.738Z,89.51
2022-10-28T21:50:56.157Z,89.77
2022-10-28T21:53:23.564Z,89.97
2022-10-28T21:55:51.320Z,90.57
2022-10-28T21:58:18.913Z,90.78
2022-10-28T22:00:47.211Z,91.28
2022-10-28T22:03:13.854Z,92.13
2022-10-28T22:05:48.504Z,92.00
2022-10-28T22:08:16.104Z,92.72
2022-10-28T22:10:42.719Z,92.07
2022-10-28T22:13:09.458Z,92.28
2022-10-28T22:15:36.042Z,92.29
2022-10-28T22:18:04.500Z,91.63
2022-10-28T22:20:31.259Z,90.26
2022-10-28T22:22:58.287Z,89.31
2022-10-28T22:25:25.006Z,87.61
2022-10-28T22:27:51.571Z,87.28
2022-10-28T22:30:18.255Z,87.90
2022-10-28T22:32:44.831Z,88.06
2022-10-28T22:35:13.235Z,88.24
2022-10-28T22:37:39.806Z,88.84
2022-10-28T22:40:07.815Z,89.67
2022-10-28T22:42:34.399Z,89.26
2022-10-28T22:45:01.107Z,89.21
2022-10-28T22:47:27.701Z,88.78
2022-10-28T22:49:54.506Z,89.18
2022-10-28T22:52:22.596Z,90.26
2022-10-28T22:54:49.343Z,89.34
2022-10-28T22:57:15.950Z,89.28
2022-10-28T22:59:42.678Z,89.35
2022-10-28T23:02:09.396Z,89.61
2022-10-28T23:04:36.006Z,89.36
2022-10-28T23:07:02.627Z,89.22
2022-10-28T23:09:30.577Z,89.64
2022-10-28T23:11:57.476Z,89.70
2022-10-28T23:14:24.262Z,89.64
2022-10-28T23:16:51.141Z,89.75
2022-10-28T23:19:17.764Z,88.49
2022-10-28T23:21:44.418Z,88.32
2022-10-28T23:24:11.231Z,88.54
2022-10-28T23:26:39.515Z,89.01
2022-10-28T23:29:06.157Z,88.48
2022-10-28T23:31:32.997Z,88.25
2022-10-28T23:33:59.886Z,89.04
2022-10-28T23:36:26.846Z,88.57
2022-10-28T23:38:56.158Z,88.54
2022-10-28T23:41:22.779Z,88.70
2022-10-28T23:43:51.043Z,88.47
2022-10-28T23:46:17.811Z,88.68
2022-10-28T23:48:44.540Z,89.02
2022-10-28T23:51:11.158Z,89.08
2022-10-28T23:53:37.939Z,89.03
2022-10-28T23:56:05.470Z,89.97
2022-10-28T23:58:32.238Z,89.63
